Cornwall Bridge, Connecticut
Current Conditions -  °F | °C
As of 11:15 PM on Thursday 27 Nov 2014 (Local Time) from KOXC Reporting Station
Overcast Overcast  
Wind Chill: -5°   Ceiling: 5000
Heat Index: -2°   Visibility: 10mi
Dew Point: -6°   Wind: 6mph
Humidity: 74%   Direction: 340°NNW
Pressure: 30.03"   Gusts: NA
Location:  41.82°N, 73.37°W
Report Text: KOXC 280415Z 34005KT 10SM OVC050 M02/M06 A3003 RMK AO1
Loading
Personal Weather Stations






























Interactive Weather Map New forecast layout! Learn more

10-Day Weather Forecast

Advertisements
Track Severe Weather on mobile